sensor_id;sensor_type;location;lat;lon;timestamp;temperature;humidity
14397;DHT22;50653;0.000;0.000;2022-08-07T00:01:05;19.30;99.90
14397;DHT22;50653;0.000;0.000;2022-08-07T00:03:31;19.30;99.90
14397;DHT22;50653;0.000;0.000;2022-08-07T00:05:58;19.30;99.90
14397;DHT22;50653;0.000;0.000;2022-08-07T00:08:23;19.40;99.90
14397;DHT22;50653;0.000;0.000;2022-08-07T00:10:49;19.40;99.90
14397;DHT22;50653;0.000;0.000;2022-08-07T00:13:16;19.40;99.90
14397;DHT22;50653;0.000;0.000;2022-08-07T00:15:42;19.40;99.90
14397;DHT22;50653;0.000;0.000;2022-08-07T00:18:08;19.40;99.90
14397;DHT22;50653;0.000;0.000;2022-08-07T00:20:37;19.40;99.90
14397;DHT22;50653;0.000;0.000;2022-08-07T00:23:04;19.40;99.90
14397;DHT22;50653;0.000;0.000;2022-08-07T00:25:33;19.30;99.90
14397;DHT22;50653;0.000;0.000;2022-08-07T00:27:59;19.30;99.90
14397;DHT22;50653;0.000;0.000;2022-08-07T00:30:25;19.30;99.90
14397;DHT22;50653;0.000;0.000;2022-08-07T00:32:51;19.30;99.90
14397;DHT22;50653;0.000;0.000;2022-08-07T00:35:17;19.30;99.90
14397;DHT22;50653;0.000;0.000;2022-08-07T00:37:43;19.30;99.90
14397;DHT22;50653;0.000;0.000;2022-08-07T00:40:09;19.30;99.90
14397;DHT22;50653;0.000;0.000;2022-08-07T00:42:35;19.30;99.90
14397;DHT22;50653;0.000;0.000;2022-08-07T00:45:01;19.40;99.90
14397;DHT22;50653;0.000;0.000;2022-08-07T00:47:26;19.40;99.90
14397;DHT22;50653;0.000;0.000;2022-08-07T00:49:52;19.20;99.90
14397;DHT22;50653;0.000;0.000;2022-08-07T00:52:18;19.20;99.90
14397;DHT22;50653;0.000;0.000;2022-08-07T00:54:43;19.30;99.90
14397;DHT22;50653;0.000;0.000;2022-08-07T00:57:09;19.30;99.90
14397;DHT22;50653;0.000;0.000;2022-08-07T00:59:36;19.30;99.90
14397;DHT22;50653;0.000;0.000;2022-08-07T01:02:05;19.40;99.90
14397;DHT22;50653;0.000;0.000;2022-08-07T01:04:31;19.40;99.90
14397;DHT22;50653;0.000;0.000;2022-08-07T01:06:57;19.40;99.90
14397;DHT22;50653;0.000;0.000;2022-08-07T01:09:24;19.40;99.90
14397;DHT22;50653;0.000;0.000;2022-08-07T01:11:50;19.40;99.90
14397;DHT22;50653;0.000;0.000;2022-08-07T01:14:20;19.30;99.90
14397;DHT22;50653;0.000;0.000;2022-08-07T01:16:47;19.30;99.90
14397;DHT22;50653;0.000;0.000;2022-08-07T01:19:14;19.30;99.90
14397;DHT22;50653;0.000;0.000;2022-08-07T01:21:40;19.20;99.90
14397;DHT22;50653;0.000;0.000;2022-08-07T01:24:07;19.20;99.90
14397;DHT22;50653;0.000;0.000;2022-08-07T01:26:33;19.30;99.90
14397;DHT22;50653;0.000;0.000;2022-08-07T01:28:59;19.40;99.90
14397;DHT22;50653;0.000;0.000;2022-08-07T01:31:27;19.20;99.90
14397;DHT22;50653;0.000;0.000;2022-08-07T01:33:59;19.00;99.90
14397;DHT22;50653;0.000;0.000;2022-08-07T01:36:30;19.00;99.90
14397;DHT22;50653;0.000;0.000;2022-08-07T01:38:58;19.00;99.90
14397;DHT22;50653;0.000;0.000;2022-08-07T01:41:24;19.20;99.90
14397;DHT22;50653;0.000;0.000;2022-08-07T01:43:51;19.10;99.90
14397;DHT22;50653;0.000;0.000;2022-08-07T01:46:19;19.20;99.90
14397;DHT22;50653;0.000;0.000;2022-08-07T01:48:46;19.20;99.90
14397;DHT22;50653;0.000;0.000;2022-08-07T01:51:19;19.20;99.90
14397;DHT22;50653;0.000;0.000;2022-08-07T01:53:48;19.20;99.90
14397;DHT22;50653;0.000;0.000;2022-08-07T01:56:23;19.10;99.90
14397;DHT22;50653;0.000;0.000;2022-08-07T01:58:53;19.10;99.90
14397;DHT22;50653;0.000;0.000;2022-08-07T02:01:29;19.10;99.90
14397;DHT22;50653;0.000;0.000;2022-08-07T02:04:02;19.10;99.90
14397;DHT22;50653;0.000;0.000;2022-08-07T02:06:32;19.10;99.90
14397;DHT22;50653;0.000;0.000;2022-08-07T02:09:04;19.20;99.90
14397;DHT22;50653;0.000;0.000;2022-08-07T02:11:37;19.20;99.90
14397;DHT22;50653;0.000;0.000;2022-08-07T02:14:04;19.10;99.90
14397;DHT22;50653;0.000;0.000;2022-08-07T02:16:34;19.20;99.90
14397;DHT22;50653;0.000;0.000;2022-08-07T02:19:02;19.30;99.90
14397;DHT22;50653;0.000;0.000;2022-08-07T02:21:29;19.30;99.90
14397;DHT22;50653;0.000;0.000;2022-08-07T02:23:57;19.30;99.90
14397;DHT22;50653;0.000;0.000;2022-08-07T02:26:24;19.20;99.90
14397;DHT22;50653;0.000;0.000;2022-08-07T02:28:51;19.20;99.90
14397;DHT22;50653;0.000;0.000;2022-08-07T02:31:18;19.20;99.90
14397;DHT22;50653;0.000;0.000;2022-08-07T02:33:46;19.20;99.90
14397;DHT22;50653;0.000;0.000;2022-08-07T02:36:16;19.20;99.90
14397;DHT22;50653;0.000;0.000;2022-08-07T02:38:42;19.10;99.90
14397;DHT22;50653;0.000;0.000;2022-08-07T02:41:09;19.10;99.90
14397;DHT22;50653;0.000;0.000;2022-08-07T02:43:38;19.10;99.90
14397;DHT22;50653;0.000;0.000;2022-08-07T02:46:06;19.00;99.90
14397;DHT22;50653;0.000;0.000;2022-08-07T02:48:34;19.10;99.90
14397;DHT22;50653;0.000;0.000;2022-08-07T02:51:11;19.00;99.90
14397;DHT22;50653;0.000;0.000;2022-08-07T02:53:39;19.00;99.90
14397;DHT22;50653;0.000;0.000;2022-08-07T02:56:12;19.00;99.90
14397;DHT22;50653;0.000;0.000;2022-08-07T02:58:40;19.00;99.90
14397;DHT22;50653;0.000;0.000;2022-08-07T03:01:07;19.10;99.90
14397;DHT22;50653;0.000;0.000;2022-08-07T03:03:35;19.00;99.90
14397;DHT22;50653;0.000;0.000;2022-08-07T03:06:02;19.10;99.90
14397;DHT22;50653;0.000;0.000;2022-08-07T03:08:28;19.00;99.90
14397;DHT22;50653;0.000;0.000;2022-08-07T03:10:55;19.10;99.90
14397;DHT22;50653;0.000;0.000;2022-08-07T03:13:27;19.10;99.90
14397;DHT22;50653;0.000;0.000;2022-08-07T03:15:54;19.00;99.90
14397;DHT22;50653;0.000;0.000;2022-08-07T03:18:21;19.00;99.90
14397;DHT22;50653;0.000;0.000;2022-08-07T03:20:48;19.00;99.90
14397;DHT22;50653;0.000;0.000;2022-08-07T03:23:15;19.00;99.90
14397;DHT22;50653;0.000;0.000;2022-08-07T03:25:42;19.00;99.90
14397;DHT22;50653;0.000;0.000;2022-08-07T03:28:12;19.00;99.90
14397;DHT22;50653;0.000;0.000;2022-08-07T03:30:41;19.00;99.90
14397;DHT22;50653;0.000;0.000;2022-08-07T03:33:09;19.00;99.90
14397;DHT22;50653;0.000;0.000;2022-08-07T03:35:37;19.00;99.90
14397;DHT22;50653;0.000;0.000;2022-08-07T03:38:06;19.00;99.90
14397;DHT22;50653;0.000;0.000;2022-08-07T03:40:33;19.00;99.90
14397;DHT22;50653;0.000;0.000;2022-08-07T03:42:59;18.90;99.90
14397;DHT22;50653;0.000;0.000;2022-08-07T03:45:27;19.00;99.90
14397;DHT22;50653;0.000;0.000;2022-08-07T03:47:57;19.00;99.90
14397;DHT22;50653;0.000;0.000;2022-08-07T03:50:25;19.00;99.90
14397;DHT22;50653;0.000;0.000;2022-08-07T03:52:56;19.00;99.90
14397;DHT22;50653;0.000;0.000;2022-08-07T03:55:23;19.00;99.90
14397;DHT22;50653;0.000;0.000;2022-08-07T03:57:49;18.90;99.90
14397;DHT22;50653;0.000;0.000;2022-08-07T04:00:16;19.00;99.90
14397;DHT22;50653;0.000;0.000;2022-08-07T04:02:42;18.90;99.90
14397;DHT22;50653;0.000;0.000;2022-08-07T04:05:11;19.00;99.90
14397;DHT22;50653;0.000;0.000;2022-08-07T04:07:46;19.10;99.90
14397;DHT22;50653;0.000;0.000;2022-08-07T04:10:15;19.10;99.90
14397;DHT22;50653;0.000;0.000;2022-08-07T04:12:41;19.10;99.90
14397;DHT22;50653;0.000;0.000;2022-08-07T04:15:08;19.10;99.90
14397;DHT22;50653;0.000;0.000;2022-08-07T04:17:36;19.00;99.90
14397;DHT22;50653;0.000;0.000;2022-08-07T04:20:03;19.10;99.90
14397;DHT22;50653;0.000;0.000;2022-08-07T04:22:32;19.00;99.90
14397;DHT22;50653;0.000;0.000;2022-08-07T04:25:01;19.00;99.90
14397;DHT22;50653;0.000;0.000;2022-08-07T04:27:27;19.00;99.90
14397;DHT22;50653;0.000;0.000;2022-08-07T04:29:57;19.00;99.90
14397;DHT22;50653;0.000;0.000;2022-08-07T04:32:23;19.00;99.90
14397;DHT22;50653;0.000;0.000;2022-08-07T04:34:50;19.00;99.90
14397;DHT22;50653;0.000;0.000;2022-08-07T04:37:17;19.10;99.90
14397;DHT22;50653;0.000;0.000;2022-08-07T04:39:43;19.00;99.90
14397;DHT22;50653;0.000;0.000;2022-08-07T04:42:09;19.00;99.90
14397;DHT22;50653;0.000;0.000;2022-08-07T04:44:36;19.00;99.90
14397;DHT22;50653;0.000;0.000;2022-08-07T04:47:12;19.00;99.90
14397;DHT22;50653;0.000;0.000;2022-08-07T04:49:54;19.00;99.90
14397;DHT22;50653;0.000;0.000;2022-08-07T04:52:38;19.00;99.90
14397;DHT22;50653;0.000;0.000;2022-08-07T04:55:14;19.10;99.90
14397;DHT22;50653;0.000;0.000;2022-08-07T04:58:07;19.00;99.90
14397;DHT22;50653;0.000;0.000;2022-08-07T05:00:49;19.00;99.90
14397;DHT22;50653;0.000;0.000;2022-08-07T05:03:30;19.10;99.90
14397;DHT22;50653;0.000;0.000;2022-08-07T05:06:08;19.10;99.90
14397;DHT22;50653;0.000;0.000;2022-08-07T05:08:49;19.00;99.90
14397;DHT22;50653;0.000;0.000;2022-08-07T05:11:34;19.00;99.90
14397;DHT22;50653;0.000;0.000;2022-08-07T05:14:14;19.00;99.90
14397;DHT22;50653;0.000;0.000;2022-08-07T05:16:44;19.00;99.90
14397;DHT22;50653;0.000;0.000;2022-08-07T05:19:16;18.90;99.90
14397;DHT22;50653;0.000;0.000;2022-08-07T05:21:47;19.00;99.90
14397;DHT22;50653;0.000;0.000;2022-08-07T05:24:16;19.00;99.90
14397;DHT22;50653;0.000;0.000;2022-08-07T05:26:43;19.00;99.90
14397;DHT22;50653;0.000;0.000;2022-08-07T05:29:13;19.10;99.90
14397;DHT22;50653;0.000;0.000;2022-08-07T05:31:41;19.10;99.90
14397;DHT22;50653;0.000;0.000;2022-08-07T05:34:14;19.10;99.90
14397;DHT22;50653;0.000;0.000;2022-08-07T05:36:45;19.10;99.90
14397;DHT22;50653;0.000;0.000;2022-08-07T05:39:20;19.10;99.90
14397;DHT22;50653;0.000;0.000;2022-08-07T05:41:48;19.10;99.90
14397;DHT22;50653;0.000;0.000;2022-08-07T05:44:19;19.10;99.90
14397;DHT22;50653;0.000;0.000;2022-08-07T05:46:48;19.20;99.90
14397;DHT22;50653;0.000;0.000;2022-08-07T05:49:16;19.10;99.90
14397;DHT22;50653;0.000;0.000;2022-08-07T05:51:45;19.20;99.90
14397;DHT22;50653;0.000;0.000;2022-08-07T05:54:11;19.20;99.90
14397;DHT22;50653;0.000;0.000;2022-08-07T05:56:41;19.20;99.90
14397;DHT22;50653;0.000;0.000;2022-08-07T05:59:15;19.20;99.90
14397;DHT22;50653;0.000;0.000;2022-08-07T06:01:44;19.30;99.90
14397;DHT22;50653;0.000;0.000;2022-08-07T06:04:13;19.40;99.90
14397;DHT22;50653;0.000;0.000;2022-08-07T06:06:41;19.40;99.90
14397;DHT22;50653;0.000;0.000;2022-08-07T06:09:08;19.40;99.90
14397;DHT22;50653;0.000;0.000;2022-08-07T06:11:38;19.40;99.90
14397;DHT22;50653;0.000;0.000;2022-08-07T06:14:04;19.40;99.90
14397;DHT22;50653;0.000;0.000;2022-08-07T06:16:32;19.40;99.90
14397;DHT22;50653;0.000;0.000;2022-08-07T06:19:02;19.50;99.90
14397;DHT22;50653;0.000;0.000;2022-08-07T06:21:29;19.40;99.90
14397;DHT22;50653;0.000;0.000;2022-08-07T06:23:56;19.30;99.90
14397;DHT22;50653;0.000;0.000;2022-08-07T06:26:24;19.40;99.90
14397;DHT22;50653;0.000;0.000;2022-08-07T06:28:55;19.40;99.90
14397;DHT22;50653;0.000;0.000;2022-08-07T06:31:24;19.50;99.90
14397;DHT22;50653;0.000;0.000;2022-08-07T06:33:51;19.40;99.90
14397;DHT22;50653;0.000;0.000;2022-08-07T06:36:17;19.50;99.90
14397;DHT22;50653;0.000;0.000;2022-08-07T06:38:48;19.50;99.90
14397;DHT22;50653;0.000;0.000;2022-08-07T06:41:22;19.50;99.90
14397;DHT22;50653;0.000;0.000;2022-08-07T06:43:49;19.60;99.90
14397;DHT22;50653;0.000;0.000;2022-08-07T06:46:18;19.60;99.90
14397;DHT22;50653;0.000;0.000;2022-08-07T06:48:44;19.60;99.90
14397;DHT22;50653;0.000;0.000;2022-08-07T06:51:16;19.60;99.90
14397;DHT22;50653;0.000;0.000;2022-08-07T06:53:43;19.60;99.90
14397;DHT22;50653;0.000;0.000;2022-08-07T06:56:13;19.60;99.90
14397;DHT22;50653;0.000;0.000;2022-08-07T06:58:39;19.60;99.90
14397;DHT22;50653;0.000;0.000;2022-08-07T07:01:10;19.60;99.90
14397;DHT22;50653;0.000;0.000;2022-08-07T07:03:38;19.60;99.90
14397;DHT22;50653;0.000;0.000;2022-08-07T07:06:09;19.60;99.90
14397;DHT22;50653;0.000;0.000;2022-08-07T07:08:34;19.70;99.90
14397;DHT22;50653;0.000;0.000;2022-08-07T07:11:03;19.70;99.90
14397;DHT22;50653;0.000;0.000;2022-08-07T07:13:35;19.80;99.90
14397;DHT22;50653;0.000;0.000;2022-08-07T07:16:11;19.80;99.90
14397;DHT22;50653;0.000;0.000;2022-08-07T07:18:51;19.80;99.90
14397;DHT22;50653;0.000;0.000;2022-08-07T07:21:23;19.90;99.90
14397;DHT22;50653;0.000;0.000;2022-08-07T07:23:50;19.70;99.90
14397;DHT22;50653;0.000;0.000;2022-08-07T07:26:18;19.80;99.90
14397;DHT22;50653;0.000;0.000;2022-08-07T07:28:48;19.80;99.90
14397;DHT22;50653;0.000;0.000;2022-08-07T07:31:26;19.70;99.90
14397;DHT22;50653;0.000;0.000;2022-08-07T07:33:56;19.60;99.90
14397;DHT22;50653;0.000;0.000;2022-08-07T07:36:24;19.70;99.90
14397;DHT22;50653;0.000;0.000;2022-08-07T07:38:50;19.60;99.90
14397;DHT22;50653;0.000;0.000;2022-08-07T07:41:21;19.70;99.90
14397;DHT22;50653;0.000;0.000;2022-08-07T07:43:50;19.80;99.90
14397;DHT22;50653;0.000;0.000;2022-08-07T07:46:16;19.80;99.90
14397;DHT22;50653;0.000;0.000;2022-08-07T07:48:44;19.80;99.90
14397;DHT22;50653;0.000;0.000;2022-08-07T07:51:13;19.80;99.90
14397;DHT22;50653;0.000;0.000;2022-08-07T07:53:42;19.80;99.90
14397;DHT22;50653;0.000;0.000;2022-08-07T07:56:09;19.80;99.90
14397;DHT22;50653;0.000;0.000;2022-08-07T07:58:38;19.80;99.90
14397;DHT22;50653;0.000;0.000;2022-08-07T08:01:06;19.70;99.90
14397;DHT22;50653;0.000;0.000;2022-08-07T08:03:34;19.60;99.90
14397;DHT22;50653;0.000;0.000;2022-08-07T08:06:01;19.70;99.90
14397;DHT22;50653;0.000;0.000;2022-08-07T08:08:29;19.70;99.90
14397;DHT22;50653;0.000;0.000;2022-08-07T08:10:55;19.70;99.90
14397;DHT22;50653;0.000;0.000;2022-08-07T08:13:23;19.80;99.90
14397;DHT22;50653;0.000;0.000;2022-08-07T08:15:50;19.80;99.90
14397;DHT22;50653;0.000;0.000;2022-08-07T08:18:17;19.80;99.90
14397;DHT22;50653;0.000;0.000;2022-08-07T08:20:44;19.90;99.90
14397;DHT22;50653;0.000;0.000;2022-08-07T08:23:11;19.90;99.90
14397;DHT22;50653;0.000;0.000;2022-08-07T08:26:00;19.90;99.90
14397;DHT22;50653;0.000;0.000;2022-08-07T08:28:46;19.80;99.90
14397;DHT22;50653;0.000;0.000;2022-08-07T08:31:19;19.90;99.90
14397;DHT22;50653;0.000;0.000;2022-08-07T08:33:46;19.90;99.90
14397;DHT22;50653;0.000;0.000;2022-08-07T08:36:13;19.90;99.90
14397;DHT22;50653;0.000;0.000;2022-08-07T08:38:42;20.00;99.90
14397;DHT22;50653;0.000;0.000;2022-08-07T08:41:35;20.00;99.90
14397;DHT22;50653;0.000;0.000;2022-08-07T08:44:23;20.00;99.90
14397;DHT22;50653;0.000;0.000;2022-08-07T08:47:01;20.00;99.90
14397;DHT22;50653;0.000;0.000;2022-08-07T08:49:44;20.10;99.90
14397;DHT22;50653;0.000;0.000;2022-08-07T08:52:21;20.20;99.90
14397;DHT22;50653;0.000;0.000;2022-08-07T08:57:54;20.30;99.90
14397;DHT22;50653;0.000;0.000;2022-08-07T09:00:21;20.30;99.90
14397;DHT22;50653;0.000;0.000;2022-08-07T09:02:57;20.30;99.80
14397;DHT22;50653;0.000;0.000;2022-08-07T09:05:45;20.30;99.50
14397;DHT22;50653;0.000;0.000;2022-08-07T09:10:49;20.20;99.20
14397;DHT22;50653;0.000;0.000;2022-08-07T09:13:31;20.20;99.40
14397;DHT22;50653;0.000;0.000;2022-08-07T09:16:10;20.30;98.90
14397;DHT22;50653;0.000;0.000;2022-08-07T09:29:54;20.30;98.70
14397;DHT22;50653;0.000;0.000;2022-08-07T09:32:31;20.40;98.40
14397;DHT22;50653;0.000;0.000;2022-08-07T09:35:25;20.40;98.70
14397;DHT22;50653;0.000;0.000;2022-08-07T09:40:49;20.40;98.10
14397;DHT22;50653;0.000;0.000;2022-08-07T09:46:12;20.50;97.90
14397;DHT22;50653;0.000;0.000;2022-08-07T09:49:11;20.60;97.30
14397;DHT22;50653;0.000;0.000;2022-08-07T09:54:22;20.60;97.70
14397;DHT22;50653;0.000;0.000;2022-08-07T09:57:10;20.80;97.70
14397;DHT22;50653;0.000;0.000;2022-08-07T10:00:07;20.80;97.90
14397;DHT22;50653;0.000;0.000;2022-08-07T10:05:42;20.80;97.30
14397;DHT22;50653;0.000;0.000;2022-08-07T10:19:19;21.00;96.40
14397;DHT22;50653;0.000;0.000;2022-08-07T10:21:50;20.90;96.80
14397;DHT22;50653;0.000;0.000;2022-08-07T10:24:22;21.00;97.00
14397;DHT22;50653;0.000;0.000;2022-08-07T10:27:15;21.10;96.80
14397;DHT22;50653;0.000;0.000;2022-08-07T10:41:07;21.40;95.80
14397;DHT22;50653;0.000;0.000;2022-08-07T10:43:41;21.40;95.70
14397;DHT22;50653;0.000;0.000;2022-08-07T10:46:14;21.40;94.60
14397;DHT22;50653;0.000;0.000;2022-08-07T10:49:07;21.40;95.60
14397;DHT22;50653;0.000;0.000;2022-08-07T10:51:55;21.50;95.40
14397;DHT22;50653;0.000;0.000;2022-08-07T10:54:36;21.50;94.60
14397;DHT22;50653;0.000;0.000;2022-08-07T10:57:26;21.60;94.60
14397;DHT22;50653;0.000;0.000;2022-08-07T11:00:13;21.60;94.50
14397;DHT22;50653;0.000;0.000;2022-08-07T11:02:55;21.60;94.30
14397;DHT22;50653;0.000;0.000;2022-08-07T11:08:31;21.70;93.50
14397;DHT22;50653;0.000;0.000;2022-08-07T11:11:24;21.80;93.60
14397;DHT22;50653;0.000;0.000;2022-08-07T11:13:58;21.80;93.00
14397;DHT22;50653;0.000;0.000;2022-08-07T11:16:33;21.80;93.30
14397;DHT22;50653;0.000;0.000;2022-08-07T11:19:21;21.70;92.90
14397;DHT22;50653;0.000;0.000;2022-08-07T11:21:52;21.70;93.30
14397;DHT22;50653;0.000;0.000;2022-08-07T11:26:56;21.70;92.20
14397;DHT22;50653;0.000;0.000;2022-08-07T11:32:15;21.80;92.30
14397;DHT22;50653;0.000;0.000;2022-08-07T11:34:49;21.80;92.30
14397;DHT22;50653;0.000;0.000;2022-08-07T11:38:00;21.80;91.40
14397;DHT22;50653;0.000;0.000;2022-08-07T11:40:48;21.80;91.90
14397;DHT22;50653;0.000;0.000;2022-08-07T11:43:28;21.80;91.30
14397;DHT22;50653;0.000;0.000;2022-08-07T11:52:02;22.00;91.50
14397;DHT22;50653;0.000;0.000;2022-08-07T11:54:51;21.90;90.20
14397;DHT22;50653;0.000;0.000;2022-08-07T12:00:09;22.00;91.00
14397;DHT22;50653;0.000;0.000;2022-08-07T12:05:57;22.10;90.40
14397;DHT22;50653;0.000;0.000;2022-08-07T12:08:42;22.10;90.40
14397;DHT22;50653;0.000;0.000;2022-08-07T12:11:22;22.10;90.30
14397;DHT22;50653;0.000;0.000;2022-08-07T12:14:02;22.20;90.00
14397;DHT22;50653;0.000;0.000;2022-08-07T12:16:46;22.20;89.30
14397;DHT22;50653;0.000;0.000;2022-08-07T12:19:43;22.30;89.40
14397;DHT22;50653;0.000;0.000;2022-08-07T12:22:15;22.30;89.00
14397;DHT22;50653;0.000;0.000;2022-08-07T12:25:02;22.40;88.60
14397;DHT22;50653;0.000;0.000;2022-08-07T12:27:53;22.40;88.80
14397;DHT22;50653;0.000;0.000;2022-08-07T12:30:24;22.40;89.40
14397;DHT22;50653;0.000;0.000;2022-08-07T12:33:03;22.40;89.00
14397;DHT22;50653;0.000;0.000;2022-08-07T12:35:31;22.40;87.60
14397;DHT22;50653;0.000;0.000;2022-08-07T12:37:58;22.50;87.50
14397;DHT22;50653;0.000;0.000;2022-08-07T12:40:27;22.50;86.30
14397;DHT22;50653;0.000;0.000;2022-08-07T12:42:56;22.50;87.40
14397;DHT22;50653;0.000;0.000;2022-08-07T12:45:26;22.60;86.90
14397;DHT22;50653;0.000;0.000;2022-08-07T12:51:11;22.90;85.00
14397;DHT22;50653;0.000;0.000;2022-08-07T12:54:00;22.90;82.80
14397;DHT22;50653;0.000;0.000;2022-08-07T12:56:38;22.80;82.10
14397;DHT22;50653;0.000;0.000;2022-08-07T12:59:07;22.90;82.40
14397;DHT22;50653;0.000;0.000;2022-08-07T13:01:57;22.90;83.50
14397;DHT22;50653;0.000;0.000;2022-08-07T13:04:39;23.00;82.40
14397;DHT22;50653;0.000;0.000;2022-08-07T13:15:47;23.10;80.40
14397;DHT22;50653;0.000;0.000;2022-08-07T13:18:25;23.10;80.90
14397;DHT22;50653;0.000;0.000;2022-08-07T13:20:58;23.10;81.70
14397;DHT22;50653;0.000;0.000;2022-08-07T13:26:14;23.00;79.30
14397;DHT22;50653;0.000;0.000;2022-08-07T13:29:16;23.00;80.60
14397;DHT22;50653;0.000;0.000;2022-08-07T13:31:54;23.10;79.70
14397;DHT22;50653;0.000;0.000;2022-08-07T13:37:17;23.00;78.30
14397;DHT22;50653;0.000;0.000;2022-08-07T13:42:24;22.90;78.20
14397;DHT22;50653;0.000;0.000;2022-08-07T13:44:52;22.90;78.80
14397;DHT22;50653;0.000;0.000;2022-08-07T13:47:19;22.90;80.30
14397;DHT22;50653;0.000;0.000;2022-08-07T13:49:47;23.00;77.60
14397;DHT22;50653;0.000;0.000;2022-08-07T13:52:14;22.90;79.70
14397;DHT22;50653;0.000;0.000;2022-08-07T13:54:42;23.00;79.90
14397;DHT22;50653;0.000;0.000;2022-08-07T13:57:11;23.10;79.90
14397;DHT22;50653;0.000;0.000;2022-08-07T13:59:44;23.10;79.50
14397;DHT22;50653;0.000;0.000;2022-08-07T14:02:12;23.20;78.80
14397;DHT22;50653;0.000;0.000;2022-08-07T14:04:52;23.10;79.00
14397;DHT22;50653;0.000;0.000;2022-08-07T14:07:22;23.10;78.30
14397;DHT22;50653;0.000;0.000;2022-08-07T14:09:53;23.10;78.50
14397;DHT22;50653;0.000;0.000;2022-08-07T14:12:27;22.90;77.90
14397;DHT22;50653;0.000;0.000;2022-08-07T14:15:00;22.90;76.80
14397;DHT22;50653;0.000;0.000;2022-08-07T14:17:28;22.80;77.10
14397;DHT22;50653;0.000;0.000;2022-08-07T14:19:59;22.80;78.90
14397;DHT22;50653;0.000;0.000;2022-08-07T14:22:30;22.80;78.10
14397;DHT22;50653;0.000;0.000;2022-08-07T14:25:00;22.80;77.90
14397;DHT22;50653;0.000;0.000;2022-08-07T14:27:38;22.70;78.40
14397;DHT22;50653;0.000;0.000;2022-08-07T14:30:10;22.80;78.00
14397;DHT22;50653;0.000;0.000;2022-08-07T14:32:46;22.80;78.20
14397;DHT22;50653;0.000;0.000;2022-08-07T14:35:18;22.80;77.30
14397;DHT22;50653;0.000;0.000;2022-08-07T14:37:46;22.80;78.60
14397;DHT22;50653;0.000;0.000;2022-08-07T14:40:15;22.80;77.30
14397;DHT22;50653;0.000;0.000;2022-08-07T14:42:45;22.80;78.10
14397;DHT22;50653;0.000;0.000;2022-08-07T14:45:17;22.80;78.50
14397;DHT22;50653;0.000;0.000;2022-08-07T14:47:43;22.90;78.50
14397;DHT22;50653;0.000;0.000;2022-08-07T14:50:11;22.90;77.50
14397;DHT22;50653;0.000;0.000;2022-08-07T14:52:44;22.90;77.70
14397;DHT22;50653;0.000;0.000;2022-08-07T14:55:12;22.90;77.50
14397;DHT22;50653;0.000;0.000;2022-08-07T14:57:39;22.80;76.80
14397;DHT22;50653;0.000;0.000;2022-08-07T15:00:05;22.80;76.50
14397;DHT22;50653;0.000;0.000;2022-08-07T15:02:33;22.70;76.00
14397;DHT22;50653;0.000;0.000;2022-08-07T15:05:02;22.70;77.30
14397;DHT22;50653;0.000;0.000;2022-08-07T15:07:28;22.80;76.40
14397;DHT22;50653;0.000;0.000;2022-08-07T15:09:57;22.80;77.10
14397;DHT22;50653;0.000;0.000;2022-08-07T15:12:27;22.80;77.20
14397;DHT22;50653;0.000;0.000;2022-08-07T15:15:09;22.70;76.90
14397;DHT22;50653;0.000;0.000;2022-08-07T15:17:40;22.80;77.20
14397;DHT22;50653;0.000;0.000;2022-08-07T15:20:11;22.80;75.80
14397;DHT22;50653;0.000;0.000;2022-08-07T15:22:48;22.70;76.70
14397;DHT22;50653;0.000;0.000;2022-08-07T15:25:23;22.60;76.20
14397;DHT22;50653;0.000;0.000;2022-08-07T15:27:53;22.60;76.50
14397;DHT22;50653;0.000;0.000;2022-08-07T15:30:21;22.50;76.50
14397;DHT22;50653;0.000;0.000;2022-08-07T15:32:48;22.60;76.50
14397;DHT22;50653;0.000;0.000;2022-08-07T15:35:19;22.60;75.70
14397;DHT22;50653;0.000;0.000;2022-08-07T15:37:57;22.60;76.20
14397;DHT22;50653;0.000;0.000;2022-08-07T15:40:30;22.60;76.30
14397;DHT22;50653;0.000;0.000;2022-08-07T15:43:23;22.60;76.10
14397;DHT22;50653;0.000;0.000;2022-08-07T15:45:48;22.50;75.10
14397;DHT22;50653;0.000;0.000;2022-08-07T15:50:47;22.50;76.00
14397;DHT22;50653;0.000;0.000;2022-08-07T15:53:32;22.50;75.30
14397;DHT22;50653;0.000;0.000;2022-08-07T15:56:02;22.60;75.30
14397;DHT22;50653;0.000;0.000;2022-08-07T15:58:57;22.60;75.10
14397;DHT22;50653;0.000;0.000;2022-08-07T16:01:27;22.60;75.70
14397;DHT22;50653;0.000;0.000;2022-08-07T16:03:59;22.60;75.70
14397;DHT22;50653;0.000;0.000;2022-08-07T16:06:34;22.60;75.60
14397;DHT22;50653;0.000;0.000;2022-08-07T16:09:11;22.50;75.90
14397;DHT22;50653;0.000;0.000;2022-08-07T16:12:15;22.40;75.50
14397;DHT22;50653;0.000;0.000;2022-08-07T16:15:13;22.50;75.00
14397;DHT22;50653;0.000;0.000;2022-08-07T16:18:08;22.30;75.50
14397;DHT22;50653;0.000;0.000;2022-08-07T16:21:37;22.30;75.80
14397;DHT22;50653;0.000;0.000;2022-08-07T16:24:12;22.30;75.10
14397;DHT22;50653;0.000;0.000;2022-08-07T16:27:03;22.10;76.20
14397;DHT22;50653;0.000;0.000;2022-08-07T16:32:57;22.00;75.20
14397;DHT22;50653;0.000;0.000;2022-08-07T16:35:33;22.00;76.20
14397;DHT22;50653;0.000;0.000;2022-08-07T16:51:55;21.90;76.60
14397;DHT22;50653;0.000;0.000;2022-08-07T16:57:38;21.80;76.10
14397;DHT22;50653;0.000;0.000;2022-08-07T17:00:11;21.90;76.60
14397;DHT22;50653;0.000;0.000;2022-08-07T17:08:03;21.80;76.50
14397;DHT22;50653;0.000;0.000;2022-08-07T17:10:48;21.80;76.80
14397;DHT22;50653;0.000;0.000;2022-08-07T17:18:58;21.80;77.00
14397;DHT22;50653;0.000;0.000;2022-08-07T17:21:31;21.70;77.50
14397;DHT22;50653;0.000;0.000;2022-08-07T17:26:53;21.70;78.20
14397;DHT22;50653;0.000;0.000;2022-08-07T17:29:25;21.70;77.70
14397;DHT22;50653;0.000;0.000;2022-08-07T17:32:15;21.70;77.40
14397;DHT22;50653;0.000;0.000;2022-08-07T17:34:47;21.80;77.40
14397;DHT22;50653;0.000;0.000;2022-08-07T17:43:30;21.70;78.00
14397;DHT22;50653;0.000;0.000;2022-08-07T17:46:10;21.70;77.80
14397;DHT22;50653;0.000;0.000;2022-08-07T17:52:09;21.60;77.80
14397;DHT22;50653;0.000;0.000;2022-08-07T17:55:11;21.60;77.90
14397;DHT22;50653;0.000;0.000;2022-08-07T17:57:49;21.60;77.90
14397;DHT22;50653;0.000;0.000;2022-08-07T18:00:20;21.60;78.20
14397;DHT22;50653;0.000;0.000;2022-08-07T18:02:58;21.50;78.20
14397;DHT22;50653;0.000;0.000;2022-08-07T18:11:14;21.50;77.60
14397;DHT22;50653;0.000;0.000;2022-08-07T18:13:45;21.60;77.50
14397;DHT22;50653;0.000;0.000;2022-08-07T18:24:54;21.30;78.70
14397;DHT22;50653;0.000;0.000;2022-08-07T18:27:49;21.30;79.20
14397;DHT22;50653;0.000;0.000;2022-08-07T18:30:30;21.40;79.00
14397;DHT22;50653;0.000;0.000;2022-08-07T18:47:37;21.50;78.20
14397;DHT22;50653;0.000;0.000;2022-08-07T19:01:54;21.40;76.70
14397;DHT22;50653;0.000;0.000;2022-08-07T19:10:15;21.40;76.20
14397;DHT22;50653;0.000;0.000;2022-08-07T19:12:55;21.30;75.60
14397;DHT22;50653;0.000;0.000;2022-08-07T19:16:00;21.40;75.30
14397;DHT22;50653;0.000;0.000;2022-08-07T19:18:39;21.30;74.70
14397;DHT22;50653;0.000;0.000;2022-08-07T19:21:39;21.40;74.40
14397;DHT22;50653;0.000;0.000;2022-08-07T19:24:12;21.40;74.20